Alberta, MN (56207)

12:52 AM CST on December 03, 2016 (GMT -0600)
Morris Municipal | | Change Station

Elev 1129 ft 45.57 °N, 95.97 °W | Updated 19 minutes ago

Overcast
Overcast
27 °F
Feels Like 27 °F
N
0
Wind Variable Wind from North

Today
High -- | Low -- °F
--% Chance of Precip.
Yesterday
High -- | Low -- °F
Precip. -- in
Pressure 30.29 in
Visibility 10.0 miles
Clouds Overcast 1900 ft
Dew Point 19 °F
Humidity 74%
Rainfall 0.00 in
Snow Depth Not available.
7:47 AM 4:41 PM
Waxing Crescent, 13% visible
METAR KMOX 030633Z AUTO 00000KT 10SM OVC019 M03/M07 A3029 RMK AO2
Pressure 30.29 in
Visibility 10.0 miles
Clouds Overcast 1900 ft
Dew Point 19 °F
Humidity 74%
Rainfall 0.00 in
Snow Depth Not available.
7:47 AM 4:41 PM
Waxing Crescent, 13% visible
METAR KMOX 030633Z AUTO 00000KT 10SM OVC019 M03/M07 A3029 RMK AO2

10-Day Weather Forecast

Almanac

Astronomy

Dec. 03, 2016 Rise Set
Actual Time
Civil Twilight
Nautical Twilight
Astronomical Twilight
Moon
Length of Visible Light
Length of Day
Tomorrow will be .
, % of the Moon is Illuminated

Today's Extremes

State Highs State Lows

Community

WunderPhotos

Upload Photos

1,955,432 photos uploaded!

WunderBlog® & News

Nearby

Air Quality

  Air Quality AQ Index Pollutant
Not available.

Snow Depth

Station Depth Elevation

Earthquake Activity

City Distance Mag. Time & Date
Minimum magnitude displayed is 2.5.

Coastal Water Temperatures

Place Temperature

Stations

Nearby Weather Stations

Station Location Temp. Windchill Dew Point Humidity Wind Precip. Elev Updated Type
                   

Watches & Warnings

There are currently no watches in effect.